createdAt,value
2022-11-18T00:02:50.605Z,8.4
2022-11-18T00:05:50.634Z,8.4
2022-11-18T00:08:50.663Z,8.4
2022-11-18T00:11:50.691Z,8.4
2022-11-18T00:14:50.712Z,8.4
2022-11-18T00:17:50.760Z,8.4
2022-11-18T00:20:50.751Z,8.4
2022-11-18T00:23:50.783Z,8.4
2022-11-18T00:26:50.816Z,8.4
2022-11-18T00:29:50.837Z,8.4
2022-11-18T00:32:50.857Z,8.4
2022-11-18T00:35:50.921Z,8.4
2022-11-18T00:38:50.905Z,8.4
2022-11-18T00:41:50.941Z,8.4
2022-11-18T00:44:50.966Z,8.4
2022-11-18T00:47:50.983Z,8.4
2022-11-18T00:50:51.006Z,8.4
2022-11-18T00:53:51.052Z,8.4
2022-11-18T00:56:51.052Z,8.4
2022-11-18T00:59:51.077Z,8.4
2022-11-18T01:02:51.115Z,8.3
2022-11-18T01:05:51.147Z,8.4
2022-11-18T01:08:51.179Z,8.4
2022-11-18T01:11:51.228Z,8.3
2022-11-18T01:14:51.238Z,8.4
2022-11-18T01:17:51.265Z,8.4
2022-11-18T01:20:51.288Z,8.4
2022-11-18T01:23:51.314Z,8.3
2022-11-18T01:26:51.330Z,8.3
2022-11-18T01:29:51.364Z,8.3
2022-11-18T01:32:51.339Z,8.3
2022-11-18T01:35:51.354Z,8.3
2022-11-18T01:38:51.359Z,8.3
2022-11-18T01:41:51.366Z,8.3
2022-11-18T01:44:51.358Z,8.3
2022-11-18T01:47:51.383Z,8.3
2022-11-18T01:50:51.367Z,8.3
2022-11-18T01:53:51.372Z,8.3
2022-11-18T01:56:51.373Z,8.3
2022-11-18T01:59:51.377Z,8.3
2022-11-18T02:02:51.383Z,8.3
2022-11-18T02:05:51.444Z,8.3
2022-11-18T02:08:51.424Z,8.3
2022-11-18T02:11:51.510Z,8.3
2022-11-18T02:14:51.447Z,8.3
2022-11-18T02:17:51.430Z,8.3
2022-11-18T02:20:51.436Z,8.3
2022-11-18T02:23:51.465Z,8.3
2022-11-18T02:26:51.437Z,8.3
2022-11-18T02:29:51.440Z,8.3
2022-11-18T02:32:51.438Z,8.3
2022-11-18T02:35:51.441Z,8.3
2022-11-18T02:38:51.441Z,8.3
2022-11-18T02:41:51.477Z,8.3
2022-11-18T02:44:51.452Z,8.3
2022-11-18T02:47:51.456Z,8.3
2022-11-18T02:50:51.451Z,8.3
2022-11-18T02:53:51.452Z,8.3
2022-11-18T02:56:51.468Z,8.3
2022-11-18T02:59:51.484Z,8.3
2022-11-18T03:02:51.460Z,8.3
2022-11-18T03:05:51.453Z,8.3
2022-11-18T03:08:51.465Z,8.3
2022-11-18T03:11:51.467Z,8.3
2022-11-18T03:14:51.467Z,8.3
2022-11-18T03:17:51.500Z,8.3
2022-11-18T03:20:51.475Z,8.3
2022-11-18T03:23:51.470Z,8.3
2022-11-18T03:26:51.477Z,8.3
2022-11-18T03:29:51.479Z,8.3
2022-11-18T03:32:51.481Z,8.3
2022-11-18T03:35:51.506Z,8.3
2022-11-18T03:38:51.491Z,8.3
2022-11-18T03:41:51.484Z,8.3
2022-11-18T03:44:52.645Z,8.3
2022-11-18T03:47:51.488Z,8.3
2022-11-18T03:50:51.489Z,8.3
2022-11-18T03:53:51.513Z,8.3
2022-11-18T03:56:51.498Z,8.3
2022-11-18T03:59:51.497Z,8.3
2022-11-18T04:02:51.502Z,8.3
2022-11-18T04:05:51.506Z,8.3
2022-11-18T04:08:51.502Z,8.3
2022-11-18T04:11:51.531Z,8.3
2022-11-18T04:14:51.511Z,8.3
2022-11-18T04:17:51.510Z,8.3
2022-11-18T04:20:51.518Z,8.3
2022-11-18T04:23:51.520Z,8.3
2022-11-18T04:26:51.518Z,8.3
2022-11-18T04:29:51.543Z,8.3
2022-11-18T04:32:51.525Z,8.3
2022-11-18T04:35:51.537Z,8.3
2022-11-18T04:38:51.530Z,8.3
2022-11-18T04:41:51.534Z,8.3
2022-11-18T04:44:51.530Z,8.3
2022-11-18T04:47:51.560Z,8.3
2022-11-18T04:50:51.535Z,8.3
2022-11-18T04:53:51.540Z,8.3
2022-11-18T04:56:51.551Z,8.3
2022-11-18T04:59:51.541Z,8.3
2022-11-18T05:02:51.543Z,8.3
2022-11-18T05:05:51.570Z,8.3
2022-11-18T05:08:51.554Z,8.3
2022-11-18T05:11:51.552Z,8.3
2022-11-18T05:14:51.552Z,8.3
2022-11-18T05:17:51.555Z,8.3
2022-11-18T05:20:51.565Z,8.3
2022-11-18T05:23:51.579Z,8.3
2022-11-18T05:26:51.556Z,8.3
2022-11-18T05:29:51.560Z,8.3
2022-11-18T05:32:51.565Z,8.3
2022-11-18T05:35:55.051Z,8.3
2022-11-18T05:38:51.569Z,8.3
2022-11-18T05:41:51.605Z,8.3
2022-11-18T05:44:56.311Z,8.3
2022-11-18T05:47:51.576Z,8.3
2022-11-18T05:50:51.577Z,8.2
2022-11-18T05:53:51.582Z,8.2
2022-11-18T05:56:51.583Z,8.2
2022-11-18T05:59:51.605Z,8.2
2022-11-18T06:02:51.680Z,8.2
2022-11-18T06:05:51.592Z,8.3
2022-11-18T06:08:51.590Z,8.2
2022-11-18T06:11:51.592Z,8.2
2022-11-18T06:14:51.600Z,8.2
2022-11-18T06:17:51.630Z,8.2
2022-11-18T06:20:51.596Z,8.2
2022-11-18T06:23:51.601Z,8.2
2022-11-18T06:26:51.605Z,8.2
2022-11-18T06:29:51.604Z,8.2
2022-11-18T06:32:51.602Z,8.2
2022-11-18T06:35:51.677Z,8.2
2022-11-18T06:38:51.612Z,8.2
2022-11-18T06:41:51.616Z,8.2
2022-11-18T06:44:51.668Z,8.2
2022-11-18T06:47:51.613Z,8.2
2022-11-18T06:50:51.614Z,8.2
2022-11-18T06:53:51.643Z,8.2
2022-11-18T06:56:51.645Z,8.2
2022-11-18T06:59:51.651Z,8.2
2022-11-18T07:02:51.649Z,8.2
2022-11-18T07:05:51.650Z,8.2
2022-11-18T07:08:51.658Z,8.2
2022-11-18T07:11:51.695Z,8.2
2022-11-18T07:14:51.675Z,8.2
2022-11-18T07:17:51.678Z,8.2
2022-11-18T07:20:51.670Z,8.2
2022-11-18T07:23:51.680Z,8.2
2022-11-18T07:26:51.679Z,8.2
2022-11-18T07:29:51.702Z,8.2
2022-11-18T07:32:51.682Z,8.2
2022-11-18T07:35:51.685Z,8.2
2022-11-18T07:38:51.689Z,8.1
2022-11-18T07:41:51.692Z,8.1
2022-11-18T07:44:51.693Z,8.2
2022-11-18T07:47:51.789Z,8.1
2022-11-18T07:50:51.698Z,8.1
2022-11-18T07:53:51.701Z,8.1
2022-11-18T07:56:51.702Z,8.2
2022-11-18T07:59:51.708Z,8.1
2022-11-18T08:02:51.706Z,8.1
2022-11-18T08:05:51.732Z,8.1
2022-11-18T08:08:51.709Z,8.1
2022-11-18T08:11:51.709Z,8.1
2022-11-18T08:14:51.713Z,8.1
2022-11-18T08:17:51.722Z,8.1
2022-11-18T08:20:51.718Z,8.1
2022-11-18T08:23:51.741Z,8.1
2022-11-18T08:26:51.722Z,8.1
2022-11-18T08:29:51.734Z,8.1
2022-11-18T08:32:51.727Z,8.1
2022-11-18T08:35:51.730Z,8.1
2022-11-18T08:38:51.733Z,8.1
2022-11-18T08:41:51.766Z,8.1
2022-11-18T08:44:51.744Z,8.1
2022-11-18T08:47:51.744Z,8.1
2022-11-18T08:50:51.747Z,8.1
2022-11-18T08:53:51.758Z,8.1
2022-11-18T08:56:51.745Z,8.1
2022-11-18T08:59:51.773Z,8.1
2022-11-18T09:02:52.676Z,8.1
2022-11-18T09:05:51.759Z,8.1
2022-11-18T09:08:51.760Z,8.1
2022-11-18T09:11:51.766Z,8.1
2022-11-18T09:15:13.243Z,8.1
2022-11-18T09:17:51.883Z,8.1
2022-11-18T09:20:51.776Z,8.1
2022-11-18T09:23:51.778Z,8.1
2022-11-18T09:26:51.779Z,8.1
2022-11-18T09:29:51.784Z,8.1
2022-11-18T09:32:51.795Z,8.1
2022-11-18T09:35:51.817Z,8.1
2022-11-18T09:38:53.423Z,8.1
2022-11-18T09:41:51.806Z,8.1
2022-11-18T09:44:51.804Z,8.1
2022-11-18T09:47:51.810Z,8.1
2022-11-18T09:50:51.898Z,8.1
2022-11-18T09:53:51.843Z,8.1
2022-11-18T09:56:51.965Z,8.1
2022-11-18T09:59:51.828Z,8.1
2022-11-18T10:02:51.836Z,8.1
2022-11-18T10:05:51.837Z,8.1
2022-11-18T10:08:51.841Z,8.1
2022-11-18T10:11:52.299Z,8.1
2022-11-18T10:14:51.848Z,8.1
2022-11-18T10:17:51.851Z,8.1
2022-11-18T10:20:51.861Z,8.1
2022-11-18T10:23:51.865Z,8.1
2022-11-18T10:26:51.864Z,8.1
2022-11-18T10:29:51.893Z,8.1
2022-11-18T10:32:51.871Z,8.1
2022-11-18T10:35:51.877Z,8.1
2022-11-18T10:38:51.878Z,8.1
2022-11-18T10:41:51.886Z,8.1
2022-11-18T10:44:51.890Z,8.1
2022-11-18T10:47:52.002Z,8
2022-11-18T10:50:55.401Z,8.1
2022-11-18T10:53:51.902Z,8
2022-11-18T10:56:56.536Z,8
2022-11-18T10:59:51.920Z,8
2022-11-18T11:02:51.918Z,8
2022-11-18T11:05:51.947Z,8
2022-11-18T11:08:51.928Z,8
2022-11-18T11:11:51.929Z,8
2022-11-18T11:14:51.934Z,8
2022-11-18T11:17:52.028Z,8
2022-11-18T11:20:51.939Z,8
2022-11-18T11:23:51.979Z,8
2022-11-18T11:29:51.958Z,8
2022-11-18T11:32:51.966Z,8
2022-11-18T11:35:51.986Z,8
2022-11-18T11:38:51.973Z,8
2022-11-18T11:41:52.005Z,8
2022-11-18T11:44:51.986Z,8
2022-11-18T11:47:51.993Z,8
2022-11-18T11:50:57.324Z,8
2022-11-18T11:53:52.005Z,7.9
2022-11-18T11:56:52.014Z,7.9
2022-11-18T11:59:52.045Z,7.9
2022-11-18T12:02:52.055Z,7.9
2022-11-18T12:05:52.032Z,7.9
2022-11-18T12:08:52.029Z,7.9
2022-11-18T12:11:52.035Z,7.9
2022-11-18T12:14:52.039Z,7.9
2022-11-18T12:17:52.072Z,7.9
2022-11-18T12:20:52.269Z,7.9
2022-11-18T12:23:52.056Z,7.9
2022-11-18T12:26:52.065Z,7.9
2022-11-18T12:29:52.077Z,7.9
2022-11-18T12:32:52.080Z,7.9
2022-11-18T12:35:52.126Z,7.9
2022-11-18T12:38:52.085Z,7.9
2022-11-18T12:41:52.097Z,7.9
2022-11-18T12:44:52.106Z,7.9
2022-11-18T12:47:52.105Z,7.9
2022-11-18T12:50:52.112Z,7.9
2022-11-18T12:53:52.155Z,7.9
2022-11-18T12:56:52.120Z,7.9
2022-11-18T12:59:52.125Z,7.9
2022-11-18T13:02:52.128Z,7.9
2022-11-18T13:05:52.137Z,7.8
2022-11-18T13:08:52.146Z,7.9
2022-11-18T13:11:52.230Z,7.8
2022-11-18T13:14:52.153Z,7.9
2022-11-18T13:17:52.180Z,7.8
2022-11-18T13:20:52.171Z,7.8
2022-11-18T13:23:56.302Z,7.8
2022-11-18T13:26:52.183Z,7.8
2022-11-18T13:29:54.164Z,7.8
2022-11-18T13:32:52.194Z,7.8
2022-11-18T13:35:52.205Z,7.8
2022-11-18T13:38:52.210Z,7.8
2022-11-18T13:41:52.221Z,7.8
2022-11-18T13:44:52.230Z,7.8
2022-11-18T13:47:52.255Z,7.8
2022-11-18T13:50:52.243Z,7.8
2022-11-18T13:53:52.242Z,7.8
2022-11-18T13:56:52.250Z,7.8
2022-11-18T13:59:52.251Z,7.8
2022-11-18T14:02:52.262Z,7.8
2022-11-18T14:05:52.292Z,7.8
2022-11-18T14:08:52.262Z,7.8
2022-11-18T14:11:52.267Z,7.8
2022-11-18T14:14:52.268Z,7.8
2022-11-18T14:17:52.275Z,7.8
2022-11-18T14:20:52.279Z,7.8
2022-11-18T14:23:52.305Z,7.8
2022-11-18T14:26:52.276Z,7.8
2022-11-18T14:29:52.283Z,7.8
2022-11-18T14:32:52.284Z,7.8
2022-11-18T14:35:52.283Z,7.8
2022-11-18T14:39:11.667Z,7.8
2022-11-18T14:41:52.317Z,7.8
2022-11-18T14:44:52.290Z,7.8
2022-11-18T14:47:52.308Z,7.8
2022-11-18T14:50:52.314Z,7.8
2022-11-18T14:53:52.323Z,7.7
2022-11-18T14:56:52.329Z,7.7
2022-11-18T14:59:52.476Z,7.7
2022-11-18T15:02:52.400Z,7.7
2022-11-18T15:05:52.351Z,7.7
2022-11-18T15:08:52.361Z,7.7
2022-11-18T15:11:52.366Z,7.7
2022-11-18T15:14:52.374Z,7.7
2022-11-18T15:17:53.987Z,7.7
2022-11-18T15:20:52.390Z,7.7
2022-11-18T15:23:52.403Z,7.7
2022-11-18T15:26:52.410Z,7.7
2022-11-18T15:29:53.590Z,7.7
2022-11-18T15:32:52.434Z,7.7
2022-11-18T15:35:52.453Z,7.7
2022-11-18T15:38:52.436Z,7.7
2022-11-18T15:41:52.451Z,7.7
2022-11-18T15:44:52.458Z,7.7
2022-11-18T15:47:52.469Z,7.7
2022-11-18T15:50:54.300Z,7.7
2022-11-18T15:53:52.503Z,7.7
2022-11-18T15:56:52.488Z,7.7
2022-11-18T15:59:52.500Z,7.7
2022-11-18T16:02:52.517Z,7.7
2022-11-18T16:05:52.518Z,7.7
2022-11-18T16:08:57.742Z,7.7
2022-11-18T16:11:52.559Z,7.7
2022-11-18T16:14:52.544Z,7.7
2022-11-18T16:17:52.553Z,7.7
2022-11-18T16:20:52.562Z,7.7
2022-11-18T16:23:52.573Z,7.7
2022-11-18T16:26:52.583Z,7.7
2022-11-18T16:29:52.618Z,7.7
2022-11-18T16:32:52.625Z,7.7
2022-11-18T16:35:52.614Z,7.7
2022-11-18T16:38:52.621Z,7.7
2022-11-18T16:41:52.641Z,7.7
2022-11-18T16:44:52.640Z,7.7
2022-11-18T16:47:52.679Z,7.7
2022-11-18T16:50:52.659Z,7.7
2022-11-18T16:53:52.673Z,7.7
2022-11-18T16:56:52.686Z,7.7
2022-11-18T16:59:52.685Z,7.7
2022-11-18T17:02:52.699Z,7.7
2022-11-18T17:05:52.764Z,7.7
2022-11-18T17:08:52.728Z,7.7
2022-11-18T17:11:52.734Z,7.7
2022-11-18T17:14:52.744Z,7.7
2022-11-18T17:17:52.760Z,7.7
2022-11-18T17:20:52.764Z,7.7
2022-11-18T17:23:52.800Z,7.6
2022-11-18T17:26:52.790Z,7.7
2022-11-18T17:29:52.796Z,7.7
2022-11-18T17:32:52.817Z,7.6
2022-11-18T17:35:52.823Z,7.6
2022-11-18T17:38:52.834Z,7.6
2022-11-18T17:41:52.934Z,7.6
2022-11-18T17:44:52.851Z,7.6
2022-11-18T17:47:52.868Z,7.6
2022-11-18T17:50:52.885Z,7.6
2022-11-18T17:53:52.891Z,7.6
2022-11-18T17:56:52.904Z,7.6
2022-11-18T17:59:52.945Z,7.6
2022-11-18T18:02:52.921Z,7.6
2022-11-18T18:05:52.945Z,7.6
2022-11-18T18:08:52.955Z,7.6
2022-11-18T18:11:52.966Z,7.6
2022-11-18T18:14:52.972Z,7.6
2022-11-18T18:17:53.020Z,7.6
2022-11-18T18:20:53.005Z,7.6
2022-11-18T18:23:53.025Z,7.6
2022-11-18T18:26:53.035Z,7.6
2022-11-18T18:29:53.039Z,7.6
2022-11-18T18:32:53.055Z,7.6
2022-11-18T18:35:53.096Z,7.6
2022-11-18T18:38:53.085Z,7.6
2022-11-18T18:41:53.092Z,7.6
2022-11-18T18:44:53.106Z,7.6
2022-11-18T18:47:53.116Z,7.6
2022-11-18T18:50:53.129Z,7.6
2022-11-18T18:53:53.170Z,7.6
2022-11-18T18:56:53.154Z,7.6
2022-11-18T18:59:53.164Z,7.6
2022-11-18T19:02:53.182Z,7.6
2022-11-18T19:06:22.128Z,7.6
2022-11-18T19:08:53.206Z,7.6
2022-11-18T19:11:53.291Z,7.6
2022-11-18T19:14:53.286Z,7.6
2022-11-18T19:17:53.293Z,7.6
2022-11-18T19:20:53.260Z,7.6
2022-11-18T19:23:53.268Z,7.6
2022-11-18T19:26:53.282Z,7.6
2022-11-18T19:29:53.314Z,7.6
2022-11-18T19:32:53.309Z,7.6
2022-11-18T19:35:53.324Z,7.5
2022-11-18T19:38:53.345Z,7.5
2022-11-18T19:41:53.352Z,7.6
2022-11-18T19:44:53.361Z,7.6
2022-11-18T19:47:53.476Z,7.5
2022-11-18T19:50:53.397Z,7.5
2022-11-18T19:53:57.042Z,7.5
2022-11-18T19:56:53.423Z,7.5
2022-11-18T19:59:53.424Z,7.5
2022-11-18T20:02:53.441Z,7.5
2022-11-18T20:05:53.479Z,7.5
2022-11-18T20:08:53.465Z,7.5
2022-11-18T20:11:53.489Z,7.5
2022-11-18T20:14:53.493Z,7.5
2022-11-18T20:17:53.513Z,7.5
2022-11-18T20:20:53.526Z,7.5
2022-11-18T20:23:53.568Z,7.5
2022-11-18T20:26:53.565Z,7.5
2022-11-18T20:29:53.576Z,7.5
2022-11-18T20:32:53.588Z,7.4
2022-11-18T20:35:53.601Z,7.4
2022-11-18T20:38:53.617Z,7.4
2022-11-18T20:41:53.667Z,7.4
2022-11-18T20:44:53.647Z,7.4
2022-11-18T20:47:53.659Z,7.4
2022-11-18T20:50:53.689Z,7.4
2022-11-18T20:53:53.693Z,7.4
2022-11-18T20:56:53.719Z,7.4
2022-11-18T20:59:53.806Z,7.4
2022-11-18T21:02:53.744Z,7.4
2022-11-18T21:05:53.762Z,7.4
2022-11-18T21:08:53.775Z,7.4
2022-11-18T21:11:53.792Z,7.4
2022-11-18T21:14:53.800Z,7.4
2022-11-18T21:17:53.994Z,7.4
2022-11-18T21:20:53.834Z,7.4
2022-11-18T21:23:53.840Z,7.4
2022-11-18T21:26:53.857Z,7.4
2022-11-18T21:30:10.954Z,7.4
2022-11-18T21:32:56.841Z,7.4
2022-11-18T21:41:23.635Z,7.4
2022-11-18T21:44:23.653Z,7.4
2022-11-18T21:46:41.436Z,7.4
2022-11-18T21:51:59.803Z,7.4
2022-11-18T21:54:59.787Z,7.4
2022-11-18T21:59:02.029Z,7.4
2022-11-18T22:02:02.041Z,7.4
2022-11-18T22:05:02.049Z,7.3
2022-11-18T22:08:02.073Z,7.3
2022-11-18T22:11:02.053Z,7.3
2022-11-18T22:14:02.056Z,7.3
2022-11-18T22:17:02.071Z,7.3
2022-11-18T22:20:02.069Z,7.3
2022-11-18T22:23:02.077Z,7.3
2022-11-18T22:26:02.101Z,7.3
2022-11-18T22:29:02.082Z,7.3
2022-11-18T22:32:02.091Z,7.3
2022-11-18T22:35:02.098Z,7.3
2022-11-18T22:38:02.105Z,7.3
2022-11-18T22:41:02.112Z,7.3
2022-11-18T22:44:06.868Z,7.3
2022-11-18T22:47:02.121Z,7.3
2022-11-18T22:50:02.136Z,7.3
2022-11-18T22:53:02.134Z,7.2
2022-11-18T22:56:02.139Z,7.2
2022-11-18T22:59:02.142Z,7.2
2022-11-18T23:02:02.170Z,7.2
2022-11-18T23:05:02.152Z,7.2
2022-11-18T23:07:57.978Z,7.2
2022-11-18T23:10:25.356Z,7.2
2022-11-18T23:13:25.365Z,7.2
2022-11-18T23:16:25.377Z,7.2
2022-11-18T23:19:25.410Z,7.2
2022-11-18T23:23:08.620Z,7.2
2022-11-18T23:26:08.633Z,7.2
2022-11-18T23:29:08.649Z,7.2
2022-11-18T23:32:08.655Z,7.2
2022-11-18T23:35:08.697Z,7.2
2022-11-18T23:38:08.703Z,7.2
2022-11-18T23:41:08.691Z,7.2
2022-11-18T23:44:08.701Z,7.2
2022-11-18T23:47:08.709Z,7.2
2022-11-18T23:50:08.722Z,7.2
2022-11-18T23:53:08.755Z,7.2
2022-11-18T23:56:08.748Z,7.2
2022-11-18T23:59:08.757Z,7.2
